Airfield :
LOGIN :

Register | Disclaimer

   EN    FR    IT 

 










Legend :    VFR   Marginal VFR   IFR   Intensive IFR   Very Intensive IFR
Visi :
Ceiling :
>= 8 km
>= 3000ft
5 to 8 km
1000 to 3000 ft
1500m to 5 km
500 to 1000 ft
800 to 1500m
200 to 500 ft
< 800m
< 200 ft
Symbols :   Thunderstorms  Fog  Heavy snow  Heavy precipitations  Wind > 20 kt
SIGMETs :     Misc.  Thunderstorms  Icing  Turbulence  Mountain Waves  Volcanic Ashes






- Airport Elevation : 778 ft
- IATA code : BRQ


LKTB - Brno-Turany

CURRENT METAR :
  • 311900Z 23002KT CAVOK 24/13 Q1009 NOSIG

EXPIRED METARs :
  • 311830Z 23003KT CAVOK 25/13 Q1009 NOSIG
  • 311800Z 24005KT CAVOK 25/13 Q1009 NOSIG
  • 311730Z 23008KT CAVOK 26/13 Q1009 NOSIG
  • 311700Z 25008KT 220V280 CAVOK 27/13 Q1009 NOSIG
  • 311630Z 25007KT 210V320 CAVOK 27/12 Q1009 NOSIG

TAF TAF LKTB
Valid from the 31 at 18:00 until the 02 at 00:00 UTC


311700Z 3118/0200 24005KT CAVOK
BECMG 3120/3122 9999 BKN040
TEMPO 3122/0120 7000 RA BKN025
PROB40
TEMPO 3123/0116 4000 TSRA BKN014 SCT020CB
BECMG 0100/0103 04008KT



MET'MAP, your aeronautical weather chart ! - Copyright ORBIFLY December 2007 - Disclaimer

ORBIFLY MET'MAP TEAM :

Programming & Development : Alexandra Zaïnal
Concept & original design : Baudouin d'Aumeries
Assistance for programming : Marc-Olivier Méhu
Technical & hardware support : Manuel Goepfert

Contact : metmap@orbifly.com




SOURCES & CREDITS :

   NOAA